sensor_id;sensor_type;location;lat;lon;timestamp;temperature;humidity
9760;DHT22;4919;48.792;9.202;2022-12-05T00:01:39;2.90;99.90
9760;DHT22;4919;48.792;9.202;2022-12-05T00:04:10;2.90;99.90
9760;DHT22;4919;48.792;9.202;2022-12-05T00:06:39;2.90;99.90
9760;DHT22;4919;48.792;9.202;2022-12-05T00:09:08;2.90;99.90
9760;DHT22;4919;48.792;9.202;2022-12-05T00:11:36;2.90;99.90
9760;DHT22;4919;48.792;9.202;2022-12-05T00:14:05;3.00;99.90
9760;DHT22;4919;48.792;9.202;2022-12-05T00:16:35;3.00;99.90
9760;DHT22;4919;48.792;9.202;2022-12-05T00:19:04;3.00;99.90
9760;DHT22;4919;48.792;9.202;2022-12-05T00:21:34;2.90;99.90
9760;DHT22;4919;48.792;9.202;2022-12-05T00:24:03;2.90;99.90
9760;DHT22;4919;48.792;9.202;2022-12-05T00:26:30;2.90;99.90
9760;DHT22;4919;48.792;9.202;2022-12-05T00:28:58;3.00;99.90
9760;DHT22;4919;48.792;9.202;2022-12-05T00:31:26;3.00;99.90
9760;DHT22;4919;48.792;9.202;2022-12-05T00:33:54;3.00;99.90
9760;DHT22;4919;48.792;9.202;2022-12-05T00:36:24;3.00;99.90
9760;DHT22;4919;48.792;9.202;2022-12-05T00:38:53;3.00;99.90
9760;DHT22;4919;48.792;9.202;2022-12-05T00:41:24;3.00;99.90
9760;DHT22;4919;48.792;9.202;2022-12-05T00:43:52;3.00;99.90
9760;DHT22;4919;48.792;9.202;2022-12-05T00:46:23;3.00;99.90
9760;DHT22;4919;48.792;9.202;2022-12-05T00:48:55;3.00;99.90
9760;DHT22;4919;48.792;9.202;2022-12-05T00:51:25;3.00;99.90
9760;DHT22;4919;48.792;9.202;2022-12-05T00:53:56;3.00;99.90
9760;DHT22;4919;48.792;9.202;2022-12-05T00:56:24;3.00;99.90
9760;DHT22;4919;48.792;9.202;2022-12-05T00:58:53;3.00;99.90
9760;DHT22;4919;48.792;9.202;2022-12-05T01:01:23;3.00;99.90
9760;DHT22;4919;48.792;9.202;2022-12-05T01:03:52;3.00;99.90
9760;DHT22;4919;48.792;9.202;2022-12-05T01:06:20;3.00;99.90
9760;DHT22;4919;48.792;9.202;2022-12-05T01:08:48;3.00;99.90
9760;DHT22;4919;48.792;9.202;2022-12-05T01:11:17;3.00;99.90
9760;DHT22;4919;48.792;9.202;2022-12-05T01:13:44;3.00;99.90
9760;DHT22;4919;48.792;9.202;2022-12-05T01:16:22;3.00;99.90
9760;DHT22;4919;48.792;9.202;2022-12-05T01:18:50;3.00;99.90
9760;DHT22;4919;48.792;9.202;2022-12-05T01:21:18;3.00;99.90
9760;DHT22;4919;48.792;9.202;2022-12-05T01:23:45;3.00;99.90
9760;DHT22;4919;48.792;9.202;2022-12-05T01:26:13;3.10;99.90
9760;DHT22;4919;48.792;9.202;2022-12-05T01:28:41;3.00;99.90
9760;DHT22;4919;48.792;9.202;2022-12-05T01:31:16;3.00;99.90
9760;DHT22;4919;48.792;9.202;2022-12-05T01:33:44;3.00;99.90
9760;DHT22;4919;48.792;9.202;2022-12-05T01:36:11;3.00;99.90
9760;DHT22;4919;48.792;9.202;2022-12-05T01:38:39;3.00;99.90
9760;DHT22;4919;48.792;9.202;2022-12-05T01:41:10;3.10;99.90
9760;DHT22;4919;48.792;9.202;2022-12-05T01:46:28;3.10;99.90
9760;DHT22;4919;48.792;9.202;2022-12-05T01:49:04;3.00;99.90
9760;DHT22;4919;48.792;9.202;2022-12-05T01:51:32;3.10;99.90
9760;DHT22;4919;48.792;9.202;2022-12-05T01:54:00;3.10;99.90
9760;DHT22;4919;48.792;9.202;2022-12-05T01:56:28;3.10;99.90
9760;DHT22;4919;48.792;9.202;2022-12-05T01:58:54;3.00;99.90
9760;DHT22;4919;48.792;9.202;2022-12-05T02:01:22;3.10;99.90
9760;DHT22;4919;48.792;9.202;2022-12-05T02:03:51;3.10;99.90
9760;DHT22;4919;48.792;9.202;2022-12-05T02:06:19;3.10;99.90
9760;DHT22;4919;48.792;9.202;2022-12-05T02:08:47;3.10;99.90
9760;DHT22;4919;48.792;9.202;2022-12-05T02:11:15;3.10;99.90
9760;DHT22;4919;48.792;9.202;2022-12-05T02:17:02;3.10;99.90
9760;DHT22;4919;48.792;9.202;2022-12-05T02:25:17;3.10;99.90
9760;DHT22;4919;48.792;9.202;2022-12-05T02:28:01;3.10;99.90
9760;DHT22;4919;48.792;9.202;2022-12-05T02:30:39;3.10;99.90
9760;DHT22;4919;48.792;9.202;2022-12-05T02:36:08;3.10;99.90
9760;DHT22;4919;48.792;9.202;2022-12-05T02:38:43;3.10;99.90
9760;DHT22;4919;48.792;9.202;2022-12-05T02:41:19;3.10;99.90
9760;DHT22;4919;48.792;9.202;2022-12-05T02:44:06;3.10;99.90
9760;DHT22;4919;48.792;9.202;2022-12-05T02:46:37;3.10;99.90
9760;DHT22;4919;48.792;9.202;2022-12-05T02:49:11;3.10;99.90
9760;DHT22;4919;48.792;9.202;2022-12-05T02:51:44;3.10;99.90
9760;DHT22;4919;48.792;9.202;2022-12-05T02:54:18;3.10;99.90
9760;DHT22;4919;48.792;9.202;2022-12-05T02:56:48;3.10;99.90
9760;DHT22;4919;48.792;9.202;2022-12-05T02:59:16;3.10;99.90
9760;DHT22;4919;48.792;9.202;2022-12-05T03:01:49;3.10;99.90
9760;DHT22;4919;48.792;9.202;2022-12-05T03:04:18;3.10;99.90
9760;DHT22;4919;48.792;9.202;2022-12-05T03:07:05;3.20;99.90
9760;DHT22;4919;48.792;9.202;2022-12-05T03:09:40;3.10;99.90
9760;DHT22;4919;48.792;9.202;2022-12-05T03:12:24;3.20;99.90
9760;DHT22;4919;48.792;9.202;2022-12-05T03:18:03;3.20;99.90
9760;DHT22;4919;48.792;9.202;2022-12-05T03:20:48;3.10;99.90
9760;DHT22;4919;48.792;9.202;2022-12-05T03:23:25;3.10;99.90
9760;DHT22;4919;48.792;9.202;2022-12-05T03:34:34;3.10;99.90
9760;DHT22;4919;48.792;9.202;2022-12-05T03:37:08;3.10;99.90
9760;DHT22;4919;48.792;9.202;2022-12-05T03:39:40;3.10;99.90
9760;DHT22;4919;48.792;9.202;2022-12-05T03:42:12;3.20;99.90
9760;DHT22;4919;48.792;9.202;2022-12-05T03:47:51;3.10;99.90
9760;DHT22;4919;48.792;9.202;2022-12-05T03:50:27;3.20;99.90
9760;DHT22;4919;48.792;9.202;2022-12-05T03:53:16;3.20;99.90
9760;DHT22;4919;48.792;9.202;2022-12-05T03:56:03;3.10;99.90
9760;DHT22;4919;48.792;9.202;2022-12-05T03:58:40;3.10;99.90
9760;DHT22;4919;48.792;9.202;2022-12-05T04:01:09;3.20;99.90
9760;DHT22;4919;48.792;9.202;2022-12-05T04:03:44;3.10;99.90
9760;DHT22;4919;48.792;9.202;2022-12-05T04:06:33;3.10;99.90
9760;DHT22;4919;48.792;9.202;2022-12-05T04:09:09;3.10;99.90
9760;DHT22;4919;48.792;9.202;2022-12-05T04:11:48;3.20;99.90
9760;DHT22;4919;48.792;9.202;2022-12-05T04:14:35;3.20;99.90
9760;DHT22;4919;48.792;9.202;2022-12-05T04:17:09;3.20;99.90
9760;DHT22;4919;48.792;9.202;2022-12-05T04:19:46;3.20;99.90
9760;DHT22;4919;48.792;9.202;2022-12-05T04:22:35;3.20;99.90
9760;DHT22;4919;48.792;9.202;2022-12-05T04:25:05;3.20;99.90
9760;DHT22;4919;48.792;9.202;2022-12-05T04:28:18;3.10;99.90
9760;DHT22;4919;48.792;9.202;2022-12-05T04:31:07;3.20;99.90
9760;DHT22;4919;48.792;9.202;2022-12-05T04:34:05;3.10;99.90
9760;DHT22;4919;48.792;9.202;2022-12-05T04:36:40;3.20;99.90
9760;DHT22;4919;48.792;9.202;2022-12-05T04:39:24;3.10;99.90
9760;DHT22;4919;48.792;9.202;2022-12-05T04:41:56;3.10;99.90
9760;DHT22;4919;48.792;9.202;2022-12-05T04:44:28;3.20;99.90
9760;DHT22;4919;48.792;9.202;2022-12-05T04:46:59;3.10;99.90
9760;DHT22;4919;48.792;9.202;2022-12-05T04:49:28;3.20;99.90
9760;DHT22;4919;48.792;9.202;2022-12-05T04:52:01;3.20;99.90
9760;DHT22;4919;48.792;9.202;2022-12-05T04:54:31;3.10;99.90
9760;DHT22;4919;48.792;9.202;2022-12-05T04:57:07;3.20;99.90
9760;DHT22;4919;48.792;9.202;2022-12-05T04:59:35;3.10;99.90
9760;DHT22;4919;48.792;9.202;2022-12-05T05:02:06;3.20;99.90
9760;DHT22;4919;48.792;9.202;2022-12-05T05:04:40;3.20;99.90
9760;DHT22;4919;48.792;9.202;2022-12-05T05:07:09;3.10;99.90
9760;DHT22;4919;48.792;9.202;2022-12-05T05:09:38;3.20;99.90
9760;DHT22;4919;48.792;9.202;2022-12-05T05:12:05;3.20;99.90
9760;DHT22;4919;48.792;9.202;2022-12-05T05:14:33;3.20;99.90
9760;DHT22;4919;48.792;9.202;2022-12-05T05:16:59;3.20;99.90
9760;DHT22;4919;48.792;9.202;2022-12-05T05:19:27;3.20;99.90
9760;DHT22;4919;48.792;9.202;2022-12-05T05:21:54;3.20;99.90
9760;DHT22;4919;48.792;9.202;2022-12-05T05:24:21;3.10;99.90
9760;DHT22;4919;48.792;9.202;2022-12-05T05:26:49;3.20;99.90
9760;DHT22;4919;48.792;9.202;2022-12-05T05:29:23;3.20;99.90
9760;DHT22;4919;48.792;9.202;2022-12-05T05:31:50;3.20;99.90
9760;DHT22;4919;48.792;9.202;2022-12-05T05:34:16;3.20;99.90
9760;DHT22;4919;48.792;9.202;2022-12-05T05:36:43;3.20;99.90
9760;DHT22;4919;48.792;9.202;2022-12-05T05:39:12;3.20;99.90
9760;DHT22;4919;48.792;9.202;2022-12-05T05:41:40;3.20;99.90
9760;DHT22;4919;48.792;9.202;2022-12-05T05:44:07;3.20;99.90
9760;DHT22;4919;48.792;9.202;2022-12-05T05:46:35;3.20;99.90
9760;DHT22;4919;48.792;9.202;2022-12-05T05:49:03;3.20;99.90
9760;DHT22;4919;48.792;9.202;2022-12-05T05:51:30;3.20;99.90
9760;DHT22;4919;48.792;9.202;2022-12-05T05:53:58;3.20;99.90
9760;DHT22;4919;48.792;9.202;2022-12-05T05:56:26;3.20;99.90
9760;DHT22;4919;48.792;9.202;2022-12-05T05:59:02;3.20;99.90
9760;DHT22;4919;48.792;9.202;2022-12-05T06:01:29;3.20;99.90
9760;DHT22;4919;48.792;9.202;2022-12-05T06:03:57;3.10;99.90
9760;DHT22;4919;48.792;9.202;2022-12-05T06:06:24;3.20;99.90
9760;DHT22;4919;48.792;9.202;2022-12-05T06:08:51;3.10;99.90
9760;DHT22;4919;48.792;9.202;2022-12-05T06:11:21;3.10;99.90
9760;DHT22;4919;48.792;9.202;2022-12-05T06:13:53;3.10;99.90
9760;DHT22;4919;48.792;9.202;2022-12-05T06:16:21;3.20;99.90
9760;DHT22;4919;48.792;9.202;2022-12-05T06:18:48;3.20;99.90
9760;DHT22;4919;48.792;9.202;2022-12-05T06:21:16;3.20;99.90
9760;DHT22;4919;48.792;9.202;2022-12-05T06:23:43;3.20;99.90
9760;DHT22;4919;48.792;9.202;2022-12-05T06:26:13;3.20;99.90
9760;DHT22;4919;48.792;9.202;2022-12-05T06:28:40;3.10;99.90
9760;DHT22;4919;48.792;9.202;2022-12-05T06:31:13;3.10;99.90
9760;DHT22;4919;48.792;9.202;2022-12-05T06:33:40;3.20;99.90
9760;DHT22;4919;48.792;9.202;2022-12-05T06:36:13;3.10;99.90
9760;DHT22;4919;48.792;9.202;2022-12-05T06:38:41;3.10;99.90
9760;DHT22;4919;48.792;9.202;2022-12-05T06:41:10;3.10;99.90
9760;DHT22;4919;48.792;9.202;2022-12-05T06:43:37;3.20;99.90
9760;DHT22;4919;48.792;9.202;2022-12-05T06:46:06;3.10;99.90
9760;DHT22;4919;48.792;9.202;2022-12-05T06:48:33;3.10;99.90
9760;DHT22;4919;48.792;9.202;2022-12-05T06:51:00;3.10;99.90
9760;DHT22;4919;48.792;9.202;2022-12-05T06:53:27;3.20;99.90
9760;DHT22;4919;48.792;9.202;2022-12-05T06:55:59;3.10;99.90
9760;DHT22;4919;48.792;9.202;2022-12-05T06:58:26;3.20;99.90
9760;DHT22;4919;48.792;9.202;2022-12-05T07:00:54;3.10;99.90
9760;DHT22;4919;48.792;9.202;2022-12-05T07:03:39;3.10;99.90
9760;DHT22;4919;48.792;9.202;2022-12-05T07:06:07;3.20;99.90
9760;DHT22;4919;48.792;9.202;2022-12-05T07:08:34;3.20;99.90
9760;DHT22;4919;48.792;9.202;2022-12-05T07:11:02;3.20;99.90
9760;DHT22;4919;48.792;9.202;2022-12-05T07:13:29;3.20;99.90
9760;DHT22;4919;48.792;9.202;2022-12-05T07:15:56;3.20;99.90
9760;DHT22;4919;48.792;9.202;2022-12-05T07:18:25;3.20;99.90
9760;DHT22;4919;48.792;9.202;2022-12-05T07:21:03;3.10;99.90
9760;DHT22;4919;48.792;9.202;2022-12-05T07:23:40;3.10;99.90
9760;DHT22;4919;48.792;9.202;2022-12-05T07:26:10;3.10;99.90
9760;DHT22;4919;48.792;9.202;2022-12-05T07:28:37;3.10;99.90
9760;DHT22;4919;48.792;9.202;2022-12-05T07:31:13;3.10;99.90
9760;DHT22;4919;48.792;9.202;2022-12-05T07:33:40;3.10;99.90
9760;DHT22;4919;48.792;9.202;2022-12-05T07:36:13;3.10;99.90
9760;DHT22;4919;48.792;9.202;2022-12-05T07:38:42;3.10;99.90
9760;DHT22;4919;48.792;9.202;2022-12-05T07:41:30;3.20;99.90
9760;DHT22;4919;48.792;9.202;2022-12-05T07:43:58;3.20;99.90
9760;DHT22;4919;48.792;9.202;2022-12-05T07:46:27;3.20;99.90
9760;DHT22;4919;48.792;9.202;2022-12-05T07:48:54;3.10;99.90
9760;DHT22;4919;48.792;9.202;2022-12-05T07:51:21;3.10;99.90
9760;DHT22;4919;48.792;9.202;2022-12-05T07:53:48;3.10;99.90
9760;DHT22;4919;48.792;9.202;2022-12-05T07:56:16;3.10;99.90
9760;DHT22;4919;48.792;9.202;2022-12-05T07:58:45;3.20;99.90
9760;DHT22;4919;48.792;9.202;2022-12-05T08:01:18;3.10;99.90
9760;DHT22;4919;48.792;9.202;2022-12-05T08:03:46;3.10;99.90
9760;DHT22;4919;48.792;9.202;2022-12-05T08:06:20;3.10;99.90
9760;DHT22;4919;48.792;9.202;2022-12-05T08:08:47;3.10;99.90
9760;DHT22;4919;48.792;9.202;2022-12-05T08:11:27;3.10;99.90
9760;DHT22;4919;48.792;9.202;2022-12-05T08:13:54;3.10;99.90
9760;DHT22;4919;48.792;9.202;2022-12-05T08:16:24;3.10;99.90
9760;DHT22;4919;48.792;9.202;2022-12-05T08:19:04;3.20;99.90
9760;DHT22;4919;48.792;9.202;2022-12-05T08:21:32;3.10;99.90
9760;DHT22;4919;48.792;9.202;2022-12-05T08:24:01;3.20;99.90
9760;DHT22;4919;48.792;9.202;2022-12-05T08:26:30;3.20;99.90
9760;DHT22;4919;48.792;9.202;2022-12-05T08:29:19;3.10;99.90
9760;DHT22;4919;48.792;9.202;2022-12-05T08:31:48;3.20;99.90
9760;DHT22;4919;48.792;9.202;2022-12-05T08:34:18;3.20;99.90
9760;DHT22;4919;48.792;9.202;2022-12-05T08:36:45;3.20;99.90
9760;DHT22;4919;48.792;9.202;2022-12-05T08:39:15;3.20;99.90
9760;DHT22;4919;48.792;9.202;2022-12-05T08:41:43;3.20;99.90
9760;DHT22;4919;48.792;9.202;2022-12-05T08:44:11;3.20;99.90
9760;DHT22;4919;48.792;9.202;2022-12-05T08:46:42;3.20;99.90
9760;DHT22;4919;48.792;9.202;2022-12-05T08:49:10;3.20;99.90
9760;DHT22;4919;48.792;9.202;2022-12-05T08:51:38;3.20;99.90
9760;DHT22;4919;48.792;9.202;2022-12-05T08:54:05;3.20;99.90
9760;DHT22;4919;48.792;9.202;2022-12-05T08:56:32;3.20;99.90
9760;DHT22;4919;48.792;9.202;2022-12-05T08:58:59;3.20;99.90
9760;DHT22;4919;48.792;9.202;2022-12-05T09:01:32;3.20;99.90
9760;DHT22;4919;48.792;9.202;2022-12-05T09:04:00;3.20;99.90
9760;DHT22;4919;48.792;9.202;2022-12-05T09:06:28;3.20;99.90
9760;DHT22;4919;48.792;9.202;2022-12-05T09:08:58;3.10;99.90
9760;DHT22;4919;48.792;9.202;2022-12-05T09:11:28;3.10;99.90
9760;DHT22;4919;48.792;9.202;2022-12-05T09:13:57;3.20;99.90
9760;DHT22;4919;48.792;9.202;2022-12-05T09:16:30;3.10;99.90
9760;DHT22;4919;48.792;9.202;2022-12-05T09:19:16;3.10;99.90
9760;DHT22;4919;48.792;9.202;2022-12-05T09:21:43;3.20;99.90
9760;DHT22;4919;48.792;9.202;2022-12-05T09:24:11;3.20;99.90
9760;DHT22;4919;48.792;9.202;2022-12-05T09:26:39;3.20;99.90
9760;DHT22;4919;48.792;9.202;2022-12-05T09:29:07;3.20;99.90
9760;DHT22;4919;48.792;9.202;2022-12-05T09:31:41;3.20;99.90
9760;DHT22;4919;48.792;9.202;2022-12-05T09:34:08;3.30;99.90
9760;DHT22;4919;48.792;9.202;2022-12-05T09:36:36;3.20;99.90
9760;DHT22;4919;48.792;9.202;2022-12-05T09:39:04;3.30;99.90
9760;DHT22;4919;48.792;9.202;2022-12-05T09:45:00;3.30;99.90
9760;DHT22;4919;48.792;9.202;2022-12-05T09:50:24;3.20;99.90
9760;DHT22;4919;48.792;9.202;2022-12-05T09:55:24;3.20;99.90
9760;DHT22;4919;48.792;9.202;2022-12-05T09:57:57;3.20;99.90
9760;DHT22;4919;48.792;9.202;2022-12-05T10:00:27;3.20;99.90
9760;DHT22;4919;48.792;9.202;2022-12-05T10:03:20;3.20;99.90
9760;DHT22;4919;48.792;9.202;2022-12-05T10:06:31;3.20;99.90
9760;DHT22;4919;48.792;9.202;2022-12-05T10:09:30;3.20;99.90
9760;DHT22;4919;48.792;9.202;2022-12-05T10:17:26;3.30;99.90
9760;DHT22;4919;48.792;9.202;2022-12-05T10:19:58;3.20;99.90
9760;DHT22;4919;48.792;9.202;2022-12-05T10:22:47;3.20;99.90
9760;DHT22;4919;48.792;9.202;2022-12-05T10:25:19;3.20;99.90
9760;DHT22;4919;48.792;9.202;2022-12-05T10:27:57;3.20;99.90
9760;DHT22;4919;48.792;9.202;2022-12-05T10:30:29;3.30;99.90
9760;DHT22;4919;48.792;9.202;2022-12-05T10:32:58;3.30;99.90
9760;DHT22;4919;48.792;9.202;2022-12-05T10:35:34;3.30;99.90
9760;DHT22;4919;48.792;9.202;2022-12-05T10:38:22;3.30;99.90
9760;DHT22;4919;48.792;9.202;2022-12-05T10:40:52;3.30;99.90
9760;DHT22;4919;48.792;9.202;2022-12-05T10:43:30;3.30;99.90
9760;DHT22;4919;48.792;9.202;2022-12-05T10:45:58;3.30;99.90
9760;DHT22;4919;48.792;9.202;2022-12-05T10:48:26;3.30;99.90
9760;DHT22;4919;48.792;9.202;2022-12-05T10:50:55;3.30;99.90
9760;DHT22;4919;48.792;9.202;2022-12-05T10:53:38;3.30;99.90
9760;DHT22;4919;48.792;9.202;2022-12-05T10:56:37;3.30;99.90
9760;DHT22;4919;48.792;9.202;2022-12-05T10:59:06;3.30;99.90
9760;DHT22;4919;48.792;9.202;2022-12-05T11:01:36;3.40;99.90
9760;DHT22;4919;48.792;9.202;2022-12-05T11:04:26;3.40;99.90
9760;DHT22;4919;48.792;9.202;2022-12-05T11:06:58;3.40;99.90
9760;DHT22;4919;48.792;9.202;2022-12-05T11:09:36;3.40;99.90
9760;DHT22;4919;48.792;9.202;2022-12-05T11:12:19;3.50;99.90
9760;DHT22;4919;48.792;9.202;2022-12-05T11:15:04;3.50;99.90
9760;DHT22;4919;48.792;9.202;2022-12-05T11:17:35;3.50;99.90
9760;DHT22;4919;48.792;9.202;2022-12-05T11:22:50;3.60;99.90
9760;DHT22;4919;48.792;9.202;2022-12-05T11:27:55;3.50;99.90
9760;DHT22;4919;48.792;9.202;2022-12-05T11:30:28;3.50;99.90
9760;DHT22;4919;48.792;9.202;2022-12-05T11:33:31;3.60;99.90
9760;DHT22;4919;48.792;9.202;2022-12-05T11:36:24;3.50;99.90
9760;DHT22;4919;48.792;9.202;2022-12-05T11:38:50;3.50;99.90
9760;DHT22;4919;48.792;9.202;2022-12-05T11:49:34;3.50;99.90
9760;DHT22;4919;48.792;9.202;2022-12-05T11:55:41;3.50;99.90
9760;DHT22;4919;48.792;9.202;2022-12-05T12:01:11;3.50;99.90
9760;DHT22;4919;48.792;9.202;2022-12-05T12:04:05;3.50;99.90
9760;DHT22;4919;48.792;9.202;2022-12-05T12:09:49;3.60;99.90
9760;DHT22;4919;48.792;9.202;2022-12-05T12:12:27;3.60;99.90
9760;DHT22;4919;48.792;9.202;2022-12-05T12:23:35;3.50;99.90
9760;DHT22;4919;48.792;9.202;2022-12-05T12:26:15;3.50;99.90
9760;DHT22;4919;48.792;9.202;2022-12-05T12:34:31;3.50;99.90
9760;DHT22;4919;48.792;9.202;2022-12-05T12:39:59;3.60;99.90
9760;DHT22;4919;48.792;9.202;2022-12-05T12:50:43;3.60;99.90
9760;DHT22;4919;48.792;9.202;2022-12-05T12:59:38;3.70;99.90
9760;DHT22;4919;48.792;9.202;2022-12-05T13:02:17;3.70;99.90
9760;DHT22;4919;48.792;9.202;2022-12-05T13:09:52;3.70;99.90
9760;DHT22;4919;48.792;9.202;2022-12-05T13:12:24;3.70;99.90
9760;DHT22;4919;48.792;9.202;2022-12-05T13:15:10;3.80;99.90
9760;DHT22;4919;48.792;9.202;2022-12-05T13:17:41;3.80;99.90
9760;DHT22;4919;48.792;9.202;2022-12-05T13:20:16;3.80;99.90
9760;DHT22;4919;48.792;9.202;2022-12-05T13:22:44;3.80;99.90
9760;DHT22;4919;48.792;9.202;2022-12-05T13:25:16;3.80;99.90
9760;DHT22;4919;48.792;9.202;2022-12-05T13:28:02;3.80;99.90
9760;DHT22;4919;48.792;9.202;2022-12-05T13:30:31;3.80;99.90
9760;DHT22;4919;48.792;9.202;2022-12-05T13:33:06;3.70;99.90
9760;DHT22;4919;48.792;9.202;2022-12-05T13:35:35;3.80;99.90
9760;DHT22;4919;48.792;9.202;2022-12-05T13:38:26;3.80;99.90
9760;DHT22;4919;48.792;9.202;2022-12-05T13:41:13;3.80;99.90
9760;DHT22;4919;48.792;9.202;2022-12-05T13:43:59;3.80;99.90
9760;DHT22;4919;48.792;9.202;2022-12-05T13:46:34;3.80;99.90
9760;DHT22;4919;48.792;9.202;2022-12-05T13:49:15;3.90;99.90
9760;DHT22;4919;48.792;9.202;2022-12-05T13:51:44;3.90;99.90
9760;DHT22;4919;48.792;9.202;2022-12-05T13:54:25;3.90;99.90
9760;DHT22;4919;48.792;9.202;2022-12-05T13:56:53;3.90;99.90
9760;DHT22;4919;48.792;9.202;2022-12-05T14:05:36;3.80;99.90
9760;DHT22;4919;48.792;9.202;2022-12-05T14:15:52;4.00;99.90
9760;DHT22;4919;48.792;9.202;2022-12-05T14:18:22;4.00;99.90
9760;DHT22;4919;48.792;9.202;2022-12-05T14:29:04;3.90;99.90
9760;DHT22;4919;48.792;9.202;2022-12-05T14:32:03;3.90;99.90
9760;DHT22;4919;48.792;9.202;2022-12-05T14:34:35;3.90;99.90
9760;DHT22;4919;48.792;9.202;2022-12-05T14:37:06;3.90;99.90
9760;DHT22;4919;48.792;9.202;2022-12-05T14:39:45;3.90;99.90
9760;DHT22;4919;48.792;9.202;2022-12-05T14:42:25;4.00;99.90
9760;DHT22;4919;48.792;9.202;2022-12-05T14:44:57;4.00;99.90
9760;DHT22;4919;48.792;9.202;2022-12-05T14:47:30;4.00;99.90
9760;DHT22;4919;48.792;9.202;2022-12-05T14:50:30;4.00;99.90
9760;DHT22;4919;48.792;9.202;2022-12-05T14:55:43;3.90;99.90
9760;DHT22;4919;48.792;9.202;2022-12-05T15:01:05;3.90;99.90
9760;DHT22;4919;48.792;9.202;2022-12-05T15:03:37;4.00;99.90
9760;DHT22;4919;48.792;9.202;2022-12-05T15:06:10;4.00;99.90
9760;DHT22;4919;48.792;9.202;2022-12-05T15:08:49;4.00;99.90
9760;DHT22;4919;48.792;9.202;2022-12-05T15:11:23;4.00;99.90
9760;DHT22;4919;48.792;9.202;2022-12-05T15:14:11;4.00;99.90
9760;DHT22;4919;48.792;9.202;2022-12-05T15:16:44;4.00;99.90
9760;DHT22;4919;48.792;9.202;2022-12-05T15:19:17;4.00;99.90
9760;DHT22;4919;48.792;9.202;2022-12-05T15:21:49;4.00;99.90
9760;DHT22;4919;48.792;9.202;2022-12-05T15:24:18;4.00;99.90
9760;DHT22;4919;48.792;9.202;2022-12-05T15:26:53;3.90;99.90
9760;DHT22;4919;48.792;9.202;2022-12-05T15:32:02;4.00;99.90
9760;DHT22;4919;48.792;9.202;2022-12-05T15:37:23;4.00;99.90
9760;DHT22;4919;48.792;9.202;2022-12-05T15:42:44;4.10;99.90
9760;DHT22;4919;48.792;9.202;2022-12-05T15:47:43;4.10;99.90
9760;DHT22;4919;48.792;9.202;2022-12-05T15:50:19;4.00;99.90
9760;DHT22;4919;48.792;9.202;2022-12-05T15:52:51;4.10;99.90
9760;DHT22;4919;48.792;9.202;2022-12-05T15:55:28;4.10;99.90
9760;DHT22;4919;48.792;9.202;2022-12-05T15:58:02;4.10;99.90
9760;DHT22;4919;48.792;9.202;2022-12-05T16:00:43;4.10;99.90
9760;DHT22;4919;48.792;9.202;2022-12-05T16:03:20;4.10;99.90
9760;DHT22;4919;48.792;9.202;2022-12-05T16:06:03;4.10;99.90
9760;DHT22;4919;48.792;9.202;2022-12-05T16:08:35;4.20;99.90
9760;DHT22;4919;48.792;9.202;2022-12-05T16:11:08;4.10;99.90
9760;DHT22;4919;48.792;9.202;2022-12-05T16:13:40;4.10;99.90
9760;DHT22;4919;48.792;9.202;2022-12-05T16:16:18;4.20;99.90
9760;DHT22;4919;48.792;9.202;2022-12-05T16:18:51;4.20;99.90
9760;DHT22;4919;48.792;9.202;2022-12-05T16:21:29;4.20;99.90
9760;DHT22;4919;48.792;9.202;2022-12-05T16:24:17;4.10;99.90
9760;DHT22;4919;48.792;9.202;2022-12-05T16:27:01;4.10;99.90
9760;DHT22;4919;48.792;9.202;2022-12-05T16:29:30;4.20;99.90
9760;DHT22;4919;48.792;9.202;2022-12-05T16:31:59;4.20;99.90
9760;DHT22;4919;48.792;9.202;2022-12-05T16:34:28;4.20;99.90
9760;DHT22;4919;48.792;9.202;2022-12-05T16:36:55;4.20;99.90
9760;DHT22;4919;48.792;9.202;2022-12-05T16:39:26;4.20;99.90
9760;DHT22;4919;48.792;9.202;2022-12-05T16:41:54;4.20;99.90
9760;DHT22;4919;48.792;9.202;2022-12-05T16:46:54;4.20;99.90
9760;DHT22;4919;48.792;9.202;2022-12-05T16:49:33;4.20;99.90
9760;DHT22;4919;48.792;9.202;2022-12-05T16:54:33;4.10;99.90
9760;DHT22;4919;48.792;9.202;2022-12-05T16:57:00;4.20;99.90
9760;DHT22;4919;48.792;9.202;2022-12-05T16:59:36;4.20;99.90
9760;DHT22;4919;48.792;9.202;2022-12-05T17:02:08;4.20;99.90
9760;DHT22;4919;48.792;9.202;2022-12-05T17:04:36;4.20;99.90
9760;DHT22;4919;48.792;9.202;2022-12-05T17:07:03;4.20;99.90
9760;DHT22;4919;48.792;9.202;2022-12-05T17:09:30;4.20;99.90
9760;DHT22;4919;48.792;9.202;2022-12-05T17:12:10;4.20;99.90
9760;DHT22;4919;48.792;9.202;2022-12-05T17:14:39;4.20;99.90
9760;DHT22;4919;48.792;9.202;2022-12-05T17:17:13;4.20;99.90
9760;DHT22;4919;48.792;9.202;2022-12-05T17:19:41;4.20;99.90
9760;DHT22;4919;48.792;9.202;2022-12-05T17:22:09;4.20;99.90
9760;DHT22;4919;48.792;9.202;2022-12-05T17:24:37;4.20;99.90
9760;DHT22;4919;48.792;9.202;2022-12-05T17:27:07;4.20;99.90
9760;DHT22;4919;48.792;9.202;2022-12-05T17:29:34;4.20;99.90
9760;DHT22;4919;48.792;9.202;2022-12-05T17:32:02;4.30;99.90
9760;DHT22;4919;48.792;9.202;2022-12-05T17:34:29;4.30;99.90
9760;DHT22;4919;48.792;9.202;2022-12-05T17:36:56;4.30;99.90
9760;DHT22;4919;48.792;9.202;2022-12-05T17:39:22;4.30;99.90
9760;DHT22;4919;48.792;9.202;2022-12-05T17:41:54;4.30;99.90
9760;DHT22;4919;48.792;9.202;2022-12-05T17:44:21;4.30;99.90
9760;DHT22;4919;48.792;9.202;2022-12-05T17:46:48;4.30;99.90
9760;DHT22;4919;48.792;9.202;2022-12-05T17:49:15;4.30;99.90
9760;DHT22;4919;48.792;9.202;2022-12-05T17:51:43;4.30;99.90
9760;DHT22;4919;48.792;9.202;2022-12-05T17:54:30;4.30;99.90
9760;DHT22;4919;48.792;9.202;2022-12-05T17:56:57;4.30;99.90
9760;DHT22;4919;48.792;9.202;2022-12-05T17:59:24;4.30;99.90
9760;DHT22;4919;48.792;9.202;2022-12-05T18:01:51;4.40;99.90
9760;DHT22;4919;48.792;9.202;2022-12-05T18:04:18;4.30;99.90
9760;DHT22;4919;48.792;9.202;2022-12-05T18:06:49;4.40;99.90
9760;DHT22;4919;48.792;9.202;2022-12-05T18:09:16;4.30;99.90
9760;DHT22;4919;48.792;9.202;2022-12-05T18:11:43;4.40;99.90
9760;DHT22;4919;48.792;9.202;2022-12-05T18:14:10;4.40;99.90
9760;DHT22;4919;48.792;9.202;2022-12-05T18:16:37;4.40;99.90
9760;DHT22;4919;48.792;9.202;2022-12-05T18:19:04;4.30;99.90
9760;DHT22;4919;48.792;9.202;2022-12-05T18:21:31;4.30;99.90
9760;DHT22;4919;48.792;9.202;2022-12-05T18:23:57;4.30;99.90
9760;DHT22;4919;48.792;9.202;2022-12-05T18:26:25;4.30;99.90
9760;DHT22;4919;48.792;9.202;2022-12-05T18:28:52;4.30;99.90
9760;DHT22;4919;48.792;9.202;2022-12-05T18:31:22;4.30;99.90
9760;DHT22;4919;48.792;9.202;2022-12-05T18:33:49;4.30;99.90
9760;DHT22;4919;48.792;9.202;2022-12-05T18:36:18;4.30;99.90
9760;DHT22;4919;48.792;9.202;2022-12-05T18:38:51;4.30;99.90
9760;DHT22;4919;48.792;9.202;2022-12-05T18:41:19;4.30;99.90
9760;DHT22;4919;48.792;9.202;2022-12-05T18:43:46;4.30;99.90
9760;DHT22;4919;48.792;9.202;2022-12-05T18:46:13;4.30;99.90
9760;DHT22;4919;48.792;9.202;2022-12-05T18:48:40;4.20;99.90
9760;DHT22;4919;48.792;9.202;2022-12-05T18:51:15;4.20;99.90
9760;DHT22;4919;48.792;9.202;2022-12-05T18:53:43;4.20;99.90
9760;DHT22;4919;48.792;9.202;2022-12-05T18:56:19;4.10;99.90
9760;DHT22;4919;48.792;9.202;2022-12-05T18:58:57;4.10;99.90
9760;DHT22;4919;48.792;9.202;2022-12-05T19:01:25;4.00;99.90
9760;DHT22;4919;48.792;9.202;2022-12-05T19:03:58;4.00;99.90
9760;DHT22;4919;48.792;9.202;2022-12-05T19:06:28;4.00;99.90
9760;DHT22;4919;48.792;9.202;2022-12-05T19:08:59;4.00;99.90
9760;DHT22;4919;48.792;9.202;2022-12-05T19:11:26;4.00;99.90
9760;DHT22;4919;48.792;9.202;2022-12-05T19:13:58;3.90;99.90
9760;DHT22;4919;48.792;9.202;2022-12-05T19:16:27;3.90;99.90
9760;DHT22;4919;48.792;9.202;2022-12-05T19:18:56;3.90;99.90